Time;durP1;ratioP1;P1;durP2;ratioP2;P2;SDS_P1;SDS_P2;PMS_P1;PMS_P2;Temp;Humidity;BMP_temperature;BMP_pressure;BME280_temperature;BME280_humidity;BME280_pressure;Samples;Min_cycle;Max_cycle;Signal;HPM_P1;HPM_P2
2023/05/15 00:00:49;;;;;;;34.00;29.33;;;;;;;9.11;100.00;101480.06;4994629;28;20088;-44
2023/05/15 00:03:16;;;;;;;36.38;30.67;;;;;;;9.45;100.00;101547.78;4977585;28;20042;-42
2023/05/15 00:05:41;;;;;;;34.70;28.70;;;;;;;9.44;100.00;101547.81;4994798;28;20030;-41
2023/05/15 00:08:07;;;;;;;35.33;28.35;;;;;;;9.41;100.00;101530.34;4977972;28;20417;-41
2023/05/15 00:10:32;;;;;;;34.33;28.40;;;;;;;9.27;100.00;101505.19;4995308;28;20034;-40
2023/05/15 00:12:57;;;;;;;30.90;27.50;;;;;;;9.34;100.00;101514.72;4973872;28;20158;-39
2023/05/15 00:15:23;;;;;;;32.15;28.52;;;;;;;9.02;100.00;101452.16;4985895;28;20057;-42
2023/05/15 00:17:48;;;;;;;31.88;27.58;;;;;;;9.24;100.00;101490.34;4994880;28;20113;-40
2023/05/15 00:20:13;;;;;;;30.83;27.40;;;;;;;9.23;100.00;101493.84;4995080;28;20465;-41
2023/05/15 00:22:39;;;;;;;31.75;27.58;;;;;;;9.21;100.00;101500.91;4994775;28;20111;-41
2023/05/15 00:25:05;;;;;;;31.67;27.92;;;;;;;9.20;100.00;101499.16;4994781;28;20041;-44
2023/05/15 00:27:30;;;;;;;33.88;27.65;;;;;;;9.19;100.00;101500.06;4994965;28;20401;-41
2023/05/15 00:29:55;;;;;;;34.63;27.73;;;;;;;9.17;100.00;101501.81;4995000;28;20030;-43
2023/05/15 00:32:21;;;;;;;31.08;27.70;;;;;;;9.13;100.00;101509.78;4986556;28;20073;-41
2023/05/15 00:34:46;;;;;;;35.03;27.48;;;;;;;9.10;100.00;101515.09;4994341;28;20080;-40
2023/05/15 00:37:12;;;;;;;32.47;28.48;;;;;;;8.70;100.00;101450.03;4994675;28;20085;-42
2023/05/15 00:39:37;;;;;;;34.75;28.17;;;;;;;9.03;100.00;101496.81;4994639;28;20049;-42
2023/05/15 00:42:03;;;;;;;33.63;29.08;;;;;;;9.03;100.00;101493.31;4993734;28;20470;-42
2023/05/15 00:44:30;;;;;;;33.08;28.42;;;;;;;9.00;100.00;101499.47;4993107;28;20178;-41
2023/05/15 00:46:56;;;;;;;35.75;31.02;;;;;;;8.98;100.00;101498.63;4994523;28;20073;-43
2023/05/15 00:49:22;;;;;;;35.97;29.48;;;;;;;8.96;100.00;101496.94;4985940;28;20027;-40
2023/05/15 00:51:49;;;;;;;35.63;29.25;;;;;;;8.94;100.00;101496.06;4976746;28;20100;-41
2023/05/15 00:54:15;;;;;;;36.50;29.33;;;;;;;8.92;100.00;101488.22;4976968;28;20085;-41
2023/05/15 00:56:41;;;;;;;35.63;29.98;;;;;;;8.24;100.00;101373.75;4994628;28;20038;-41
2023/05/15 00:59:07;;;;;;;37.17;29.35;;;;;;;8.94;100.00;101490.81;4977068;28;20121;-42
2023/05/15 01:01:33;;;;;;;38.35;29.33;;;;;;;8.88;100.00;101483.03;4976667;28;20062;-40
2023/05/15 01:04:00;;;;;;;37.67;29.38;;;;;;;8.53;100.00;101427.56;4976814;28;20030;-41
2023/05/15 01:06:26;;;;;;;39.97;33.15;;;;;;;8.89;100.00;101492.66;4968325;28;20440;-42
2023/05/15 01:08:53;;;;;;;38.78;33.97;;;;;;;8.84;100.00;101479.56;4976940;28;20038;-40
2023/05/15 01:11:19;;;;;;;42.88;33.53;;;;;;;8.70;100.00;101462.34;4993766;28;20034;-44
2023/05/15 01:13:46;;;;;;;45.65;36.95;;;;;;;8.84;100.00;101494.50;4976801;28;20180;-41
2023/05/15 01:16:11;;;;;;;46.53;37.00;;;;;;;8.84;100.00;101505.00;4993695;28;20058;-40
2023/05/15 01:18:37;;;;;;;43.33;38.08;;;;;;;8.85;100.00;101499.69;4993841;28;20034;-41
2023/05/15 01:21:27;;;;;;;52.15;39.45;;;;;;;8.84;100.00;101490.06;4993705;28;20389;-40
2023/05/15 01:24:05;;;;;;;46.03;39.27;;;;;;;8.83;100.00;101492.75;4985949;28;20116;-42
2023/05/15 01:26:45;;;;;;;45.58;38.88;;;;;;;8.77;100.00;101485.81;4976254;28;20027;-42
2023/05/15 01:29:21;;;;;;;47.25;39.22;;;;;;;8.72;100.00;101497.28;4993309;28;20026;-41
2023/05/15 01:31:50;;;;;;;49.30;39.92;;;;;;;8.31;100.00;101417.41;4993638;28;20054;-41
2023/05/15 01:34:18;;;;;;;50.92;40.22;;;;;;;8.70;100.00;101476.28;4976596;28;20193;-43
2023/05/15 01:36:55;;;;;;;49.92;41.38;;;;;;;8.63;100.00;101477.28;4976262;28;20621;-42
2023/05/15 01:39:24;;;;;;;50.85;40.05;;;;;;;8.52;100.00;101466.09;4966314;28;20038;-41
2023/05/15 01:41:54;;;;;;;52.60;42.40;;;;;;;8.62;100.00;101477.28;4976273;28;20048;-41
2023/05/15 01:44:30;;;;;;;50.80;41.20;;;;;;;8.60;100.00;101490.47;4976352;28;20229;-40
2023/05/15 01:47:03;;;;;;;52.95;41.17;;;;;;;8.44;100.00;101466.19;4976405;28;20054;-40
2023/05/15 01:49:30;;;;;;;49.78;40.45;;;;;;;8.40;100.00;101466.25;4993329;28;20037;-39
2023/05/15 01:52:00;;;;;;;51.28;41.95;;;;;;;8.19;100.00;101430.66;4975888;28;20030;-40
2023/05/15 01:54:27;;;;;;;56.42;43.10;;;;;;;8.46;100.00;101474.88;4975237;28;20038;-41
2023/05/15 01:56:54;;;;;;;60.35;43.53;;;;;;;8.45;100.00;101478.41;4965242;28;20097;-40
2023/05/15 01:59:20;;;;;;;55.83;43.22;;;;;;;7.77;100.00;101357.78;4992980;28;20027;-41
2023/05/15 02:01:46;;;;;;;56.88;43.60;;;;;;;8.52;100.00;101479.22;4975521;28;20512;-41
2023/05/15 02:04:12;;;;;;;61.78;42.97;;;;;;;8.49;100.00;101480.09;4975765;28;20457;-40
2023/05/15 02:06:38;;;;;;;55.95;43.58;;;;;;;8.47;100.00;101486.25;4975011;28;20062;-43
2023/05/15 02:09:04;;;;;;;55.78;42.17;;;;;;;8.12;100.00;101425.47;4975666;28;20033;-41
2023/05/15 02:11:29;;;;;;;59.58;44.63;;;;;;;8.54;100.00;101493.16;4973368;28;20125;-42
2023/05/15 02:13:55;;;;;;;57.80;42.13;;;;;;;8.55;100.00;101499.28;4987191;28;20438;-40
2023/05/15 02:16:21;;;;;;;55.10;43.28;;;;;;;8.15;100.00;101420.19;4975618;28;20038;-40
2023/05/15 02:18:46;;;;;;;53.45;42.08;;;;;;;8.54;100.00;101484.41;4993110;28;20034;-43
2023/05/15 02:21:12;;;;;;;58.88;43.88;;;;;;;8.59;100.00;101485.22;4975552;28;20049;-41
2023/05/15 02:23:38;;;;;;;54.15;42.85;;;;;;;8.40;100.00;101447.88;4975378;28;20035;-41
2023/05/15 02:26:21;;;;;;;52.85;41.63;;;;;;;8.60;100.00;101479.97;4984754;28;20472;-41
2023/05/15 02:28:57;;;;;;;60.25;44.15;;;;;;;8.57;100.00;101459.00;4992884;28;20559;-40
2023/05/15 02:31:32;;;;;;;51.10;41.60;;;;;;;8.28;100.00;101417.44;4975446;28;20164;-41
2023/05/15 02:34:07;;;;;;;53.78;41.50;;;;;;;8.15;100.00;101399.22;4975394;28;20426;-40
2023/05/15 02:36:32;;;;;;;53.83;41.10;;;;;;;8.17;100.00;101416.66;4975718;28;20414;-41
2023/05/15 02:38:58;;;;;;;54.03;41.97;;;;;;;8.35;100.00;101468.03;4993017;28;20034;-41
2023/05/15 02:41:24;;;;;;;58.88;43.47;;;;;;;8.29;100.00;101462.91;4971492;28;20034;-41
2023/05/15 02:43:51;;;;;;;54.15;41.70;;;;;;;7.90;100.00;101410.06;4925908;29;20039;-42
2023/05/15 02:46:17;;;;;;;60.05;43.28;;;;;;;7.88;100.00;101400.47;4954040;29;20127;-42
2023/05/15 02:48:43;;;;;;;55.58;41.03;;;;;;;8.24;100.00;101460.28;4936562;29;20044;-42
2023/05/15 02:51:09;;;;;;;50.28;39.80;;;;;;;8.21;100.00;101468.19;4953846;29;20031;-41
2023/05/15 02:53:39;;;;;;;58.17;41.75;;;;;;;8.17;100.00;101471.72;4936984;29;20043;-41
2023/05/15 02:56:05;;;;;;;55.45;43.08;;;;;;;8.15;100.00;101456.91;4953975;29;20042;-41
2023/05/15 02:58:30;;;;;;;54.92;42.60;;;;;;;8.07;100.00;101448.28;4953023;28;20039;-41
2023/05/15 03:00:56;;;;;;;55.75;40.78;;;;;;;8.13;100.00;101458.69;4981233;28;20037;-42
2023/05/15 03:03:21;;;;;;;52.15;41.42;;;;;;;8.11;100.00;101452.63;4992861;28;20739;-43
2023/05/15 03:05:46;;;;;;;57.38;42.22;;;;;;;7.82;100.00;101401.38;4996080;28;20355;-40
2023/05/15 03:08:12;;;;;;;52.70;40.88;;;;;;;8.13;100.00;101450.84;4978587;28;20393;-43
2023/05/15 03:10:37;;;;;;;60.17;42.35;;;;;;;8.21;100.00;101464.69;4978896;28;20450;-40
2023/05/15 03:13:02;;;;;;;58.28;43.75;;;;;;;7.91;100.00;101414.38;4978694;28;20058;-42
2023/05/15 03:15:28;;;;;;;56.25;42.38;;;;;;;7.88;100.00;101403.09;4988249;28;20062;-43
2023/05/15 03:17:53;;;;;;;57.45;43.25;;;;;;;8.28;100.00;101471.66;4957235;29;20047;-41
2023/05/15 03:20:18;;;;;;;59.40;44.40;;;;;;;8.30;100.00;101476.00;4957483;29;20487;-42
2023/05/15 03:22:44;;;;;;;57.60;44.22;;;;;;;8.37;100.00;101477.66;4957382;29;20102;-42
2023/05/15 03:25:10;;;;;;;62.22;46.42;;;;;;;8.42;100.00;101481.06;4957254;29;20043;-41
2023/05/15 03:27:36;;;;;;;60.55;44.40;;;;;;;8.10;100.00;101396.69;4956951;29;20223;-41
2023/05/15 03:30:02;;;;;;;65.15;45.20;;;;;;;8.60;100.00;101468.59;4938850;29;20467;-41
2023/05/15 03:32:28;;;;;;;64.13;45.17;;;;;;;8.68;100.00;101474.59;4958742;28;20030;-40
2023/05/15 03:34:53;;;;;;;57.22;42.58;;;;;;;8.46;100.00;101427.66;4995525;28;20038;-40
2023/05/15 03:37:18;;;;;;;61.20;43.03;;;;;;;8.78;100.00;101479.69;4995807;28;20041;-39
2023/05/15 03:39:44;;;;;;;58.60;44.78;;;;;;;8.85;100.00;101470.81;4995793;28;20051;-42
2023/05/15 03:42:09;;;;;;;63.22;43.35;;;;;;;8.85;100.00;101464.69;4995692;28;20144;-41
2023/05/15 03:44:34;;;;;;;63.78;48.28;;;;;;;8.98;100.00;101490.75;4977834;28;20057;-42
2023/05/15 03:47:00;;;;;;;64.72;48.78;;;;;;;9.03;100.00;101488.94;4995835;28;20040;-41
2023/05/15 03:49:25;;;;;;;63.90;48.05;;;;;;;9.06;100.00;101490.63;4987552;28;20049;-41
2023/05/15 03:51:50;;;;;;;69.05;50.65;;;;;;;8.99;100.00;101471.47;4995076;28;20394;-43
2023/05/15 03:54:16;;;;;;;73.10;53.08;;;;;;;9.03;100.00;101474.91;4995648;28;20038;-41
2023/05/15 03:56:41;;;;;;;69.28;51.65;;;;;;;8.99;100.00;101467.97;4978098;28;20462;-42
2023/05/15 03:59:06;;;;;;;72.38;53.47;;;;;;;9.03;100.00;101473.16;4995518;28;20533;-41
2023/05/15 04:01:32;;;;;;;69.35;53.63;;;;;;;8.74;100.00;101419.38;4995198;28;20126;-43
2023/05/15 04:03:57;;;;;;;73.47;55.80;;;;;;;9.06;100.00;101477.50;4991350;28;20138;-43
2023/05/15 04:06:22;;;;;;;71.03;55.40;;;;;;;8.99;100.00;101449.59;4991310;28;20049;-40
2023/05/15 04:08:48;;;;;;;72.25;55.80;;;;;;;9.05;100.00;101446.88;4995228;28;20061;-45
2023/05/15 04:11:14;;;;;;;70.72;55.17;;;;;;;9.13;100.00;101452.00;4977809;28;20044;-40
2023/05/15 04:13:39;;;;;;;71.53;54.33;;;;;;;8.82;100.00;101393.88;4994701;28;20038;-41
2023/05/15 04:16:07;;;;;;;67.68;54.50;;;;;;;9.17;100.00;101459.81;4976729;28;20102;-41
2023/05/15 04:18:32;;;;;;;70.90;55.00;;;;;;;9.24;100.00;101458.81;4995421;28;20050;-40
2023/05/15 04:20:58;;;;;;;69.85;54.17;;;;;;;9.33;100.00;101461.28;4970607;28;20393;-40
2023/05/15 04:23:23;;;;;;;62.35;50.70;;;;;;;9.10;100.00;101413.53;4977402;28;20471;-42
2023/05/15 04:25:48;;;;;;;57.03;48.83;;;;;;;9.52;100.00;101460.06;4994821;28;20034;-41
2023/05/15 04:28:14;;;;;;;60.53;46.40;;;;;;;9.58;100.00;101464.31;4994682;28;20070;-40
2023/05/15 04:30:40;;;;;;;59.03;45.88;;;;;;;9.35;100.00;101401.69;4994376;28;20363;-43
2023/05/15 04:33:05;;;;;;;60.28;45.15;;;;;;;9.78;100.00;101454.31;4994936;28;20038;-43
2023/05/15 04:35:31;;;;;;;53.47;44.10;;;;;;;9.48;100.00;101397.97;4995071;28;20516;-41
2023/05/15 04:37:56;;;;;;;49.10;40.80;;;;;;;9.93;100.00;101463.66;4970934;28;20049;-40
2023/05/15 04:40:22;;;;;;;47.38;41.15;;;;;;;9.66;100.00;101415.09;4991854;28;20034;-43
2023/05/15 04:42:47;;;;;;;47.78;41.53;;;;;;;9.68;100.00;101404.56;4977218;28;20031;-42
2023/05/15 04:45:13;;;;;;;46.58;41.50;;;;;;;10.07;100.00;101469.50;4994484;28;20426;-45
2023/05/15 04:47:39;;;;;;;44.85;39.92;;;;;;;10.05;100.00;101445.00;4977093;28;20042;-40
2023/05/15 04:50:05;;;;;;;46.30;41.17;;;;;;;10.15;100.00;101459.75;4994372;28;20519;-41
2023/05/15 04:52:31;;;;;;;41.45;36.40;;;;;;;10.12;100.00;101459.78;4994458;28;20037;-43
2023/05/15 04:54:56;;;;;;;39.90;35.65;;;;;;;9.67;100.00;101377.41;4982031;28;20105;-42
2023/05/15 04:57:22;;;;;;;41.17;36.50;;;;;;;10.22;100.00;101444.69;4994309;28;20120;-41
2023/05/15 04:59:47;;;;;;;42.40;37.88;;;;;;;10.30;100.00;101445.41;4994121;28;20470;-42
2023/05/15 05:02:12;;;;;;;39.00;34.90;;;;;;;10.45;100.00;101447.72;4971482;28;20042;-41
2023/05/15 05:04:41;;;;;;;38.15;33.85;;;;;;;10.51;100.00;101435.25;4974323;28;20039;-42
2023/05/15 05:07:07;;;;;;;35.90;30.63;;;;;;;10.40;100.00;101394.28;4951897;28;20397;-41
2023/05/15 05:09:32;;;;;;;36.00;32.25;;;;;;;10.32;100.00;101378.69;4956592;28;20125;-46
2023/05/15 05:11:58;;;;;;;36.33;32.65;;;;;;;10.78;100.00;101440.78;4972998;28;20043;-43
2023/05/15 05:14:25;;;;;;;36.50;32.90;;;;;;;10.77;100.00;101442.53;4971335;28;21489;-43
2023/05/15 05:16:50;;;;;;;36.92;33.35;;;;;;;10.57;100.00;101408.78;4965378;28;20046;-43
2023/05/15 05:19:15;;;;;;;34.22;30.90;;;;;;;10.84;100.00;101448.53;4954235;28;20041;-40
2023/05/15 05:21:40;;;;;;;35.13;31.42;;;;;;;10.59;100.00;101406.13;4963698;28;20115;-40
2023/05/15 05:24:06;;;;;;;35.92;32.42;;;;;;;10.86;100.00;101449.38;4956044;28;20044;-42
2023/05/15 05:26:31;;;;;;;32.13;28.45;;;;;;;10.76;100.00;101427.66;4955014;28;20043;-47
2023/05/15 05:28:56;;;;;;;33.78;30.30;;;;;;;10.52;100.00;101373.81;4953721;28;20105;-45
2023/05/15 05:31:22;;;;;;;33.30;29.98;;;;;;;10.58;100.00;101386.84;4956010;28;20046;-42
2023/05/15 05:33:48;;;;;;;33.83;30.52;;;;;;;10.89;100.00;101426.44;4954926;29;20038;-43
2023/05/15 05:36:14;;;;;;;31.40;28.23;;;;;;;10.73;100.00;101425.97;4953022;28;20042;-43
2023/05/15 05:38:39;;;;;;;33.58;30.10;;;;;;;10.82;100.00;101431.91;4955378;28;20039;-41
2023/05/15 05:41:05;;;;;;;33.33;29.83;;;;;;;10.99;100.00;101445.53;4953507;29;20062;-44
2023/05/15 05:43:30;;;;;;;32.83;29.58;;;;;;;10.76;100.00;101372.38;4955048;28;20044;-43
2023/05/15 05:45:55;;;;;;;31.30;28.33;;;;;;;11.20;100.00;101427.44;4954543;28;20091;-40
2023/05/15 05:48:21;;;;;;;32.17;28.70;;;;;;;10.86;100.00;101358.06;4955807;28;20050;-43
2023/05/15 05:50:46;;;;;;;30.83;27.73;;;;;;;11.29;100.00;101428.97;4956575;28;20043;-40
2023/05/15 05:53:11;;;;;;;31.67;28.67;;;;;;;11.05;100.00;101375.13;4972107;28;20528;-44
2023/05/15 05:55:37;;;;;;;29.35;26.40;;;;;;;11.21;100.00;101384.34;4949273;28;20098;-43
2023/05/15 05:58:02;;;;;;;29.55;26.73;;;;;;;10.86;100.00;101309.81;4924942;29;20488;-45
2023/05/15 06:00:28;;;;;;;30.25;27.05;;;;;;;11.56;100.00;101425.59;4945508;28;20033;-43
2023/05/15 06:02:57;;;;;;;32.42;28.92;;;;;;;11.21;100.00;101370.31;4936561;29;20126;-41
2023/05/15 06:05:23;;;;;;;32.55;29.15;;;;;;;11.61;100.00;101421.06;4937177;29;20035;-44
2023/05/15 06:07:48;;;;;;;30.92;27.92;;;;;;;11.61;100.00;101418.44;4954098;29;20039;-42
2023/05/15 06:10:14;;;;;;;32.65;29.20;;;;;;;11.36;100.00;101385.72;4937167;29;20043;-41
2023/05/15 06:12:40;;;;;;;31.63;28.58;;;;;;;11.50;100.00;101402.00;4953679;29;20114;-42
2023/05/15 06:15:06;;;;;;;33.17;29.83;;;;;;;11.50;100.00;101386.19;4970659;28;20065;-44
2023/05/15 06:17:31;;;;;;;32.80;29.50;;;;;;;11.84;100.00;101420.47;4975874;28;20046;-42
2023/05/15 06:19:57;;;;;;;32.42;29.13;;;;;;;11.73;100.00;101399.63;4975645;28;20042;-43
2023/05/15 06:22:22;;;;;;;30.77;27.73;;;;;;;11.93;100.00;101427.25;4993355;28;20109;-42
2023/05/15 06:24:47;;;;;;;34.85;31.42;;;;;;;11.98;100.00;101415.66;4992979;28;20064;-44
2023/05/15 06:27:13;;;;;;;33.03;29.67;;;;;;;12.06;100.00;101437.38;4992410;28;20030;-41
2023/05/15 06:29:38;;;;;;;32.65;29.27;;;;;;;12.07;100.00;101432.97;4992997;28;20042;-41
2023/05/15 06:32:04;;;;;;;35.67;32.15;;;;;;;11.88;100.00;101366.69;4992680;28;20042;-43
2023/05/15 06:34:29;;;;;;;32.88;29.63;;;;;;;12.02;100.00;101368.94;4993072;28;20053;-42
2023/05/15 06:36:55;;;;;;;33.47;29.98;;;;;;;12.43;100.00;101431.03;4992458;28;20037;-44
2023/05/15 06:39:20;;;;;;;35.53;31.77;;;;;;;12.37;100.00;101430.28;4976796;28;20034;-42
2023/05/15 06:41:45;;;;;;;34.60;30.77;;;;;;;12.40;100.00;101432.84;4979405;28;20120;-42
2023/05/15 06:44:11;;;;;;;36.05;32.40;;;;;;;12.47;100.00;101436.16;4995825;28;20031;-42
2023/05/15 06:46:36;;;;;;;36.85;33.08;;;;;;;12.52;100.00;101420.19;4996089;28;20077;-41
2023/05/15 06:49:01;;;;;;;36.95;33.17;;;;;;;12.36;100.00;101382.81;4996324;28;20489;-44
2023/05/15 06:51:27;;;;;;;34.30;30.70;;;;;;;12.40;100.00;101389.75;4962930;28;20035;-44
2023/05/15 06:53:52;;;;;;;33.05;29.77;;;;;;;12.64;100.00;101406.59;4996585;28;20113;-43
2023/05/15 06:56:17;;;;;;;33.80;30.48;;;;;;;12.95;100.00;101442.56;4996482;28;20066;-43
2023/05/15 06:58:42;;;;;;;33.70;30.33;;;;;;;12.98;100.00;101444.22;4996133;28;20390;-40
2023/05/15 07:01:08;;;;;;;35.72;31.92;;;;;;;13.02;100.00;101437.06;4996558;28;20038;-44
2023/05/15 07:03:34;;;;;;;34.00;30.50;;;;;;;12.72;100.00;101376.38;4979119;28;20062;-40
2023/05/15 07:05:59;;;;;;;34.38;30.98;;;;;;;13.19;100.00;101445.34;4996267;28;20049;-41
2023/05/15 07:08:25;;;;;;;33.58;30.25;;;;;;;13.24;100.00;101460.13;4996087;28;20042;-41
2023/05/15 07:10:51;;;;;;;33.63;30.33;;;;;;;13.08;100.00;101431.59;4996447;28;20092;-43
2023/05/15 07:13:19;;;;;;;33.15;29.75;;;;;;;13.13;100.00;101435.84;4978588;28;20030;-41
2023/05/15 07:15:44;;;;;;;33.75;30.35;;;;;;;13.10;100.00;101454.44;4978878;28;20050;-41
2023/05/15 07:18:10;;;;;;;36.70;33.15;;;;;;;12.77;100.00;101411.44;4996482;28;20040;-41
2023/05/15 07:20:35;;;;;;;36.20;32.65;;;;;;;12.53;100.00;101398.13;4979115;28;20034;-42
2023/05/15 07:23:00;;;;;;;34.75;31.35;;;;;;;12.85;100.00;101454.31;4978486;28;20038;-41
2023/05/15 07:25:26;;;;;;;36.80;32.95;;;;;;;12.88;100.00;101462.16;4996013;28;20041;-41
2023/05/15 07:27:51;;;;;;;36.95;33.28;;;;;;;12.88;100.00;101448.06;4996273;28;20038;-42
2023/05/15 07:30:17;;;;;;;37.45;33.47;;;;;;;12.56;100.00;101396.28;4978584;28;20030;-41
2023/05/15 07:32:42;;;;;;;37.83;34.10;;;;;;;12.98;100.00;101473.28;4995804;28;20038;-42
2023/05/15 07:35:10;;;;;;;38.08;34.10;;;;;;;12.69;100.00;101416.09;4996067;28;20408;-41
2023/05/15 07:37:35;;;;;;;38.45;34.25;;;;;;;12.77;100.00;101445.78;4995914;28;20041;-39
2023/05/15 07:40:01;;;;;;;37.25;33.38;;;;;;;12.82;100.00;101470.25;4995549;28;20039;-40
2023/05/15 07:42:26;;;;;;;37.13;33.33;;;;;;;12.45;100.00;101410.72;4995632;28;20034;-39
2023/05/15 07:44:51;;;;;;;37.15;33.25;;;;;;;12.71;100.00;101467.09;4996016;28;20038;-41
2023/05/15 07:47:16;;;;;;;36.92;33.10;;;;;;;12.71;100.00;101461.81;4978474;28;20045;-41
2023/05/15 07:49:42;;;;;;;37.67;33.75;;;;;;;12.64;100.00;101468.19;4995720;28;20396;-40
2023/05/15 07:52:07;;;;;;;38.45;34.55;;;;;;;12.28;100.00;101392.75;4995445;28;20038;-40
2023/05/15 07:54:32;;;;;;;38.97;34.97;;;;;;;12.65;100.00;101467.28;4995606;28;20034;-42
2023/05/15 07:56:58;;;;;;;39.78;35.67;;;;;;;12.44;100.00;101423.06;4995536;28;20092;-42
2023/05/15 07:59:23;;;;;;;40.45;36.35;;;;;;;12.45;100.00;101402.78;4995915;28;20038;-42
2023/05/15 08:01:49;;;;;;;39.05;35.03;;;;;;;12.73;100.00;101464.41;4995487;28;20042;-41
2023/05/15 08:04:14;;;;;;;39.92;35.65;;;;;;;12.62;100.00;101475.31;4978078;28;20089;-41
2023/05/15 08:06:41;;;;;;;38.60;34.50;;;;;;;12.37;100.00;101403.88;4995194;28;20479;-41
2023/05/15 08:09:07;;;;;;;41.65;37.08;;;;;;;12.65;100.00;101443.53;4995289;28;20057;-40
2023/05/15 08:11:32;;;;;;;42.42;37.83;;;;;;;12.74;100.00;101464.38;4995045;28;20545;-39
2023/05/15 08:13:57;;;;;;;46.50;41.10;;;;;;;12.70;100.00;101462.72;4995263;28;20031;-40
2023/05/15 08:16:23;;;;;;;45.45;39.72;;;;;;;12.51;100.00;101421.09;4995268;28;20108;-41
2023/05/15 08:18:51;;;;;;;47.13;41.60;;;;;;;12.58;100.00;101414.72;4977853;28;20088;-40
2023/05/15 08:21:17;;;;;;;42.17;37.65;;;;;;;12.38;100.00;101392.44;4995150;28;20125;-40
2023/05/15 08:23:42;;;;;;;44.05;39.28;;;;;;;12.83;100.00;101472.00;4977660;28;20125;-41
2023/05/15 08:26:07;;;;;;;46.60;41.53;;;;;;;12.55;100.00;101413.00;4994834;28;20074;-41
2023/05/15 08:28:33;;;;;;;50.35;43.63;;;;;;;12.92;100.00;101469.06;4977604;28;20054;-43
2023/05/15 08:30:58;;;;;;;47.17;40.30;;;;;;;12.52;100.00;101415.75;4994698;28;20061;-42
2023/05/15 08:33:23;;;;;;;52.30;43.95;;;;;;;12.82;100.00;101474.69;4993089;28;20062;-39
2023/05/15 08:35:49;;;;;;;49.22;41.72;;;;;;;12.85;100.00;101464.88;4993292;28;20039;-40
2023/05/15 08:38:14;;;;;;;51.88;45.40;;;;;;;12.49;100.00;101407.94;4993430;28;20034;-41
2023/05/15 08:40:40;;;;;;;58.22;47.45;;;;;;;12.77;100.00;101456.34;4993201;28;20039;-40
2023/05/15 08:43:13;;;;;;;59.55;47.67;;;;;;;12.85;100.00;101469.28;4993340;28;20034;-42
2023/05/15 08:45:40;;;;;;;60.40;47.47;;;;;;;12.59;100.00;101416.44;4975394;28;20030;-42
2023/05/15 08:48:10;;;;;;;59.83;48.28;;;;;;;12.87;100.00;101475.41;4993083;28;20100;-39
2023/05/15 08:50:38;;;;;;;64.57;48.47;;;;;;;12.89;100.00;101470.94;4975636;28;20038;-43
2023/05/15 08:53:03;;;;;;;54.35;42.90;;;;;;;12.58;100.00;101418.19;4992628;28;20113;-41
2023/05/15 08:55:29;;;;;;;57.97;44.00;;;;;;;12.69;100.00;101426.66;4992693;28;20624;-42
2023/05/15 08:57:54;;;;;;;64.95;46.78;;;;;;;12.99;100.00;101470.59;4993086;28;20038;-42
2023/05/15 09:00:21;;;;;;;51.78;42.55;;;;;;;13.04;100.00;101465.16;4975319;28;20169;-42
2023/05/15 09:02:46;;;;;;;59.83;45.17;;;;;;;12.98;100.00;101471.53;4991941;28;20049;-40
2023/05/15 09:05:12;;;;;;;65.75;49.55;;;;;;;13.06;100.00;101475.69;4992891;28;20034;-41
2023/05/15 09:07:39;;;;;;;69.32;48.88;;;;;;;13.00;100.00;101471.47;4992066;28;20492;-42
2023/05/15 09:10:06;;;;;;;64.82;48.33;;;;;;;12.83;100.00;101419.16;4992389;28;20383;-40
2023/05/15 09:12:35;;;;;;;54.75;44.05;;;;;;;12.85;100.00;101427.91;4992846;28;20038;-42
2023/05/15 09:15:08;;;;;;;52.50;41.97;;;;;;;13.25;100.00;101479.50;4992502;28;20054;-41
2023/05/15 09:17:33;;;;;;;53.75;43.22;;;;;;;13.38;100.00;101479.03;4992418;28;20501;-41
2023/05/15 09:19:59;;;;;;;52.05;40.88;;;;;;;13.63;100.00;101484.31;4992337;28;20046;-40
2023/05/15 09:22:24;;;;;;;47.95;38.53;;;;;;;13.73;100.00;101482.22;4992204;28;20105;-40
2023/05/15 09:24:51;;;;;;;48.60;39.60;;;;;;;13.46;100.00;101431.16;4975069;28;20545;-41
2023/05/15 09:27:18;;;;;;;37.53;32.95;;;;;;;13.89;100.00;101478.97;4974918;28;20053;-41
2023/05/15 09:29:44;;;;;;;40.13;33.63;;;;;;;13.60;100.00;101438.63;4975266;28;20038;-41
2023/05/15 09:32:11;;;;;;;35.90;32.08;;;;;;;13.87;100.00;101483.47;4991755;28;20073;-40
2023/05/15 09:34:41;;;;;;;35.38;31.52;;;;;;;13.33;100.00;101409.56;4992123;28;20030;-41
2023/05/15 09:37:10;;;;;;;33.70;30.05;;;;;;;13.67;100.00;101464.78;4992411;28;20273;-41
2023/05/15 09:39:41;;;;;;;30.40;27.10;;;;;;;13.77;100.00;101474.16;4974774;28;20030;-41
2023/05/15 09:42:08;;;;;;;30.50;26.92;;;;;;;13.88;100.00;101479.91;4991889;28;20486;-39
2023/05/15 09:44:33;;;;;;;30.40;27.20;;;;;;;13.73;100.00;101487.53;4991950;28;20034;-41
2023/05/15 09:47:00;;;;;;;33.03;27.35;;;;;;;13.80;100.00;101492.56;4991593;28;20104;-39
2023/05/15 09:49:28;;;;;;;30.80;27.73;;;;;;;13.66;100.00;101465.69;4974383;28;20417;-41
2023/05/15 09:51:57;;;;;;;32.28;28.88;;;;;;;13.80;100.00;101489.06;4992042;28;20038;-41
2023/05/15 09:54:24;;;;;;;30.98;27.27;;;;;;;13.81;100.00;101496.91;4991584;28;20488;-39
2023/05/15 09:56:49;;;;;;;30.90;27.70;;;;;;;13.61;100.00;101453.56;4991927;28;20040;-40
2023/05/15 09:59:20;;;;;;;30.45;27.20;;;;;;;13.82;100.00;101497.78;4992100;28;20117;-42
2023/05/15 10:01:47;;;;;;;29.58;26.58;;;;;;;13.67;100.00;101499.19;4958723;28;20423;-42
2023/05/15 10:04:13;;;;;;;27.70;24.75;;;;;;;13.69;100.00;101497.34;4974022;28;20077;-40
2023/05/15 10:06:44;;;;;;;28.30;25.38;;;;;;;13.75;100.00;101499.78;4992135;28;20094;-39
2023/05/15 10:09:10;;;;;;;;;;;;;;;13.91;100.00;101497.47;4992067;28;20030;-39
2023/05/15 10:11:37;;;;;;;27.43;24.60;;;;;;;13.63;100.00;101449.09;4991711;28;19918;-41
2023/05/15 10:14:10;;;;;;;24.88;22.20;;;;;;;13.79;100.00;101482.88;4990487;28;20289;-40
2023/05/15 10:16:36;;;;;;;26.63;23.60;;;;;;;13.99;100.00;101496.28;4971030;28;20379;-40
2023/05/15 10:19:07;;;;;;;25.48;22.85;;;;;;;14.17;100.00;101505.31;4973269;28;20486;-40
2023/05/15 10:21:35;;;;;;;25.83;21.73;;;;;;;13.80;100.00;101487.28;4990758;28;20165;-41
2023/05/15 10:24:01;;;;;;;22.15;19.77;;;;;;;13.87;100.00;101499.34;4990863;28;20034;-39
2023/05/15 10:26:36;;;;;;;18.77;16.92;;;;;;;14.08;100.00;101518.91;4973615;28;20038;-41
2023/05/15 10:29:04;;;;;;;15.80;13.70;;;;;;;13.75;100.00;101464.50;4991504;28;20042;-40
2023/05/15 10:31:30;;;;;;;13.30;11.70;;;;;;;14.27;100.00;101512.03;4990529;28;20058;-42
2023/05/15 10:33:56;;;;;;;11.35;10.20;;;;;;;14.27;100.00;101490.84;4973805;28;20147;-41
2023/05/15 10:36:21;;;;;;;12.82;10.15;;;;;;;14.80;100.00;101523.25;4990676;28;20041;-41
2023/05/15 10:38:47;;;;;;;11.07;7.93;;;;;;;14.69;100.00;101517.50;4973943;28;20065;-40
2023/05/15 10:41:12;;;;;;;8.90;7.25;;;;;;;14.60;100.00;101529.31;4973316;28;20030;-42
2023/05/15 10:43:39;;;;;;;9.85;8.10;;;;;;;14.60;100.00;101517.84;4957369;28;20096;-39
2023/05/15 10:46:05;;;;;;;10.18;6.15;;;;;;;14.34;100.00;101536.50;4973419;28;20496;-39
2023/05/15 10:48:31;;;;;;;6.47;5.88;;;;;;;14.00;100.00;101466.25;4990654;28;20125;-41
2023/05/15 10:50:59;;;;;;;9.40;6.97;;;;;;;14.16;100.00;101519.47;4973270;28;20041;-40
2023/05/15 10:53:25;;;;;;;8.77;7.18;;;;;;;14.28;100.00;101520.81;4973554;28;20030;-40
2023/05/15 10:55:50;;;;;;;7.30;6.00;;;;;;;14.38;100.00;101531.06;4990732;28;20041;-41
2023/05/15 10:58:16;;;;;;;9.48;5.25;;;;;;;13.84;100.00;101469.47;4990619;28;20031;-41
2023/05/15 11:00:43;;;;;;;5.22;4.72;;;;;;;13.99;100.00;101474.22;4990605;28;20046;-40
2023/05/15 11:03:12;;;;;;;7.43;5.25;;;;;;;14.02;100.00;101482.06;4990647;28;20049;-39